createdAt,value
2017-08-12T00:01:18.119Z,23.00
2017-08-12T00:03:46.790Z,23.33
2017-08-12T00:06:14.486Z,20.73
2017-08-12T00:08:42.139Z,19.70
2017-08-12T00:11:09.835Z,18.67
2017-08-12T00:13:37.492Z,19.90
2017-08-12T00:16:05.192Z,21.50
2017-08-12T00:18:32.858Z,20.20
2017-08-12T00:21:01.323Z,22.80
2017-08-12T00:23:28.982Z,24.60
2017-08-12T00:25:56.679Z,24.90
2017-08-12T00:28:24.334Z,26.27
2017-08-12T00:30:52.002Z,25.50
2017-08-12T00:33:19.722Z,24.07
2017-08-12T00:35:47.386Z,24.77
2017-08-12T00:38:15.092Z,25.83
2017-08-12T00:40:42.786Z,25.67
2017-08-12T00:43:10.490Z,26.60
2017-08-12T00:45:38.167Z,25.60
2017-08-12T00:48:05.906Z,25.50
2017-08-12T00:50:34.377Z,25.40
2017-08-12T00:53:02.859Z,24.17
2017-08-12T00:55:31.326Z,23.37
2017-08-12T00:57:59.074Z,23.10
2017-08-12T01:00:26.803Z,18.37
2017-08-12T01:02:54.531Z,15.10
2017-08-12T01:05:22.207Z,15.87
2017-08-12T01:07:49.907Z,14.10
2017-08-12T01:10:17.571Z,12.53
2017-08-12T01:12:45.271Z,11.20
2017-08-12T01:15:12.922Z,6.80
2017-08-12T01:17:41.380Z,7.47
2017-08-12T01:20:09.802Z,6.87
2017-08-12T01:22:37.496Z,6.77
2017-08-12T01:25:05.140Z,6.43
2017-08-12T01:27:32.827Z,7.23
2017-08-12T01:30:00.476Z,6.93
2017-08-12T01:32:28.175Z,8.07
2017-08-12T01:34:56.588Z,8.50
2017-08-12T01:37:24.244Z,8.30
2017-08-12T01:39:51.939Z,9.07
2017-08-12T01:42:19.599Z,7.73
2017-08-12T01:44:47.285Z,9.33
2017-08-12T01:47:15.707Z,8.93
2017-08-12T01:49:43.395Z,9.30
2017-08-12T01:52:11.059Z,9.63
2017-08-12T01:54:38.758Z,9.13
2017-08-12T01:57:06.406Z,8.87
2017-08-12T01:59:34.090Z,8.87
2017-08-12T02:02:01.739Z,7.20
2017-08-12T02:04:29.433Z,7.77
2017-08-12T02:06:57.082Z,7.80
2017-08-12T02:09:24.779Z,8.87
2017-08-12T02:11:52.431Z,9.20
2017-08-12T02:14:20.123Z,9.80
2017-08-12T02:16:47.771Z,9.73
2017-08-12T02:19:16.231Z,10.53
2017-08-12T02:21:43.888Z,11.90
2017-08-12T02:24:11.579Z,11.57
2017-08-12T02:26:39.995Z,11.93
2017-08-12T02:29:07.713Z,12.60
2017-08-12T02:31:35.373Z,10.93
2017-08-12T02:34:03.831Z,12.23
2017-08-12T02:36:31.486Z,12.33
2017-08-12T02:38:59.223Z,13.10
2017-08-12T02:41:26.887Z,13.23
2017-08-12T02:43:54.549Z,14.37
2017-08-12T02:46:22.250Z,13.43
2017-08-12T02:48:50.667Z,13.80
2017-08-12T02:51:19.683Z,16.27
2017-08-12T02:53:47.399Z,16.27
2017-08-12T02:56:15.095Z,15.30
2017-08-12T02:58:42.748Z,15.20
2017-08-12T03:01:10.443Z,14.97
2017-08-12T03:03:38.863Z,15.73
2017-08-12T03:06:06.560Z,15.87
2017-08-12T03:08:34.219Z,16.00
2017-08-12T03:11:01.906Z,16.57
2017-08-12T03:13:30.327Z,16.67
2017-08-12T03:15:58.024Z,15.87
2017-08-12T03:18:25.674Z,17.93
2017-08-12T03:20:53.367Z,15.50
2017-08-12T03:23:21.786Z,15.30
2017-08-12T03:25:49.483Z,16.40
2017-08-12T03:28:17.139Z,14.50
2017-08-12T03:30:44.831Z,16.03
2017-08-12T03:33:12.487Z,16.10
2017-08-12T03:35:40.183Z,15.03
2017-08-12T03:38:07.836Z,15.63
2017-08-12T03:40:35.530Z,16.80
2017-08-12T03:43:03.179Z,16.17
2017-08-12T03:45:30.890Z,16.57
2017-08-12T03:47:58.542Z,16.60
2017-08-12T03:50:26.963Z,17.30
2017-08-12T03:52:54.659Z,18.03
2017-08-12T03:55:22.319Z,17.93
2017-08-12T03:57:50.019Z,17.23
2017-08-12T04:00:17.676Z,18.30
2017-08-12T04:02:45.382Z,18.50
2017-08-12T04:05:13.048Z,18.40
2017-08-12T04:07:40.751Z,19.10
2017-08-12T04:10:10.279Z,18.30
2017-08-12T04:12:39.703Z,19.10
2017-08-12T04:15:09.949Z,18.60
2017-08-12T04:17:40.194Z,17.70
2017-08-12T04:20:10.333Z,16.73
2017-08-12T04:22:39.411Z,16.70
2017-08-12T04:25:08.233Z,18.90
2017-08-12T04:27:37.156Z,18.40
2017-08-12T04:30:07.484Z,17.13
2017-08-12T04:32:37.330Z,17.60
2017-08-12T04:35:05.916Z,18.33
2017-08-12T04:37:33.610Z,17.70
2017-08-12T04:40:01.263Z,16.33
2017-08-12T04:42:28.954Z,18.00
2017-08-12T04:44:57.366Z,17.17
2017-08-12T04:47:25.062Z,16.10
2017-08-12T04:49:52.710Z,17.87
2017-08-12T04:52:20.406Z,15.70
2017-08-12T04:54:48.818Z,17.50
2017-08-12T04:57:16.728Z,16.73
2017-08-12T04:59:44.427Z,17.03
2017-08-12T05:02:12.078Z,15.50
2017-08-12T05:04:40.543Z,16.30
2017-08-12T05:07:08.965Z,16.07
2017-08-12T05:09:36.706Z,15.13
2017-08-12T05:12:04.358Z,15.93
2017-08-12T05:14:32.058Z,15.80
2017-08-12T05:16:59.706Z,14.43
2017-08-12T05:19:27.401Z,15.27
2017-08-12T05:21:55.059Z,16.77
2017-08-12T05:24:22.754Z,15.30
2017-08-12T05:26:50.406Z,15.17
2017-08-12T05:29:18.859Z,15.27
2017-08-12T05:31:46.510Z,16.03
2017-08-12T05:34:14.203Z,14.50
2017-08-12T05:36:42.621Z,15.17
2017-08-12T05:39:10.312Z,13.63
2017-08-12T05:41:37.980Z,14.27
2017-08-12T05:44:05.688Z,12.50
2017-08-12T05:46:33.361Z,13.67
2017-08-12T05:49:01.055Z,12.03
2017-08-12T05:51:28.712Z,11.90
2017-08-12T05:53:56.410Z,11.70
2017-08-12T05:56:24.068Z,11.90
2017-08-12T05:58:51.722Z,12.57
2017-08-12T06:01:19.419Z,12.03
2017-08-12T06:03:47.075Z,12.97
2017-08-12T06:06:14.771Z,11.43
2017-08-12T06:08:42.427Z,12.83
2017-08-12T06:11:10.125Z,11.30
2017-08-12T06:13:37.784Z,10.77
2017-08-12T06:16:05.479Z,10.80
2017-08-12T06:18:33.130Z,11.40
2017-08-12T06:21:00.818Z,13.53
2017-08-12T06:23:28.471Z,10.83
2017-08-12T06:25:56.168Z,11.60
2017-08-12T06:28:24.583Z,11.83
2017-08-12T06:30:52.286Z,11.27
2017-08-12T06:33:19.938Z,10.90
2017-08-12T06:35:47.631Z,10.73
2017-08-12T06:38:15.283Z,11.77
2017-08-12T06:40:43.742Z,10.70
2017-08-12T06:43:11.402Z,10.67
2017-08-12T06:45:39.091Z,10.80
2017-08-12T06:48:06.734Z,9.87
2017-08-12T06:50:35.198Z,10.73
2017-08-12T06:53:02.862Z,10.20
2017-08-12T06:55:30.584Z,10.20
2017-08-12T06:57:58.235Z,11.57
2017-08-12T07:00:25.890Z,12.07
2017-08-12T07:02:53.589Z,11.50
2017-08-12T07:05:21.243Z,11.10
2017-08-12T07:07:48.940Z,10.17
2017-08-12T07:10:17.370Z,10.50
2017-08-12T07:12:45.066Z,11.23
2017-08-12T07:15:13.483Z,11.20
2017-08-12T07:17:41.182Z,10.13
2017-08-12T07:20:09.733Z,9.90
2017-08-12T07:22:37.422Z,11.43
2017-08-12T07:25:05.075Z,9.93
2017-08-12T07:27:32.770Z,10.50
2017-08-12T07:30:01.191Z,11.50
2017-08-12T07:32:28.886Z,10.23
2017-08-12T07:34:56.539Z,10.40
2017-08-12T07:37:24.239Z,11.23
2017-08-12T07:39:51.923Z,10.70
2017-08-12T07:42:19.625Z,10.97
2017-08-12T07:44:47.279Z,11.10
2017-08-12T07:47:14.978Z,11.73
2017-08-12T07:49:42.632Z,11.73
2017-08-12T07:52:10.330Z,11.27
2017-08-12T07:54:37.987Z,12.93
2017-08-12T07:57:05.683Z,13.57
2017-08-12T07:59:33.344Z,12.13
2017-08-12T08:02:01.810Z,13.30
2017-08-12T08:04:29.468Z,13.40
2017-08-12T08:06:57.183Z,14.97
2017-08-12T08:09:24.836Z,14.53
2017-08-12T08:11:52.487Z,20.47
2017-08-12T08:14:20.182Z,16.63
2017-08-12T08:16:47.826Z,15.50
2017-08-12T08:19:15.519Z,13.80
2017-08-12T08:21:43.174Z,11.97
2017-08-12T08:24:10.867Z,13.87
2017-08-12T08:26:39.286Z,11.70
2017-08-12T08:29:06.984Z,12.17
2017-08-12T08:31:34.643Z,12.40
2017-08-12T08:34:02.336Z,10.47
2017-08-12T08:36:30.767Z,10.30
2017-08-12T08:38:58.472Z,10.97
2017-08-12T08:41:26.886Z,10.30
2017-08-12T08:43:54.579Z,10.23
2017-08-12T08:46:22.238Z,8.50
2017-08-12T08:48:49.928Z,9.03
2017-08-12T08:51:18.343Z,7.93
2017-08-12T08:53:46.040Z,9.30
2017-08-12T08:56:13.689Z,9.13
2017-08-12T08:58:41.382Z,9.40
2017-08-12T09:01:09.798Z,9.70
2017-08-12T09:03:37.506Z,8.63
2017-08-12T09:06:05.934Z,11.30
2017-08-12T09:08:33.588Z,7.50
2017-08-12T09:11:01.279Z,5.30
2017-08-12T09:13:28.922Z,5.60
2017-08-12T09:15:56.611Z,5.37
2017-08-12T09:18:24.263Z,5.40
2017-08-12T09:20:51.963Z,5.77
2017-08-12T09:23:19.648Z,4.50
2017-08-12T09:25:47.334Z,4.63
2017-08-12T09:28:14.999Z,5.07
2017-08-12T09:30:42.688Z,4.90
2017-08-12T09:33:11.103Z,4.70
2017-08-12T09:35:38.791Z,4.50
2017-08-12T09:38:06.433Z,4.67
2017-08-12T09:40:34.119Z,4.60
2017-08-12T09:43:01.769Z,4.33
2017-08-12T09:45:29.459Z,4.57
2017-08-12T09:47:57.875Z,5.20
2017-08-12T09:50:25.567Z,5.50
2017-08-12T09:52:53.214Z,4.40
2017-08-12T09:55:20.903Z,4.47
2017-08-12T09:57:48.556Z,4.53
2017-08-12T10:00:16.248Z,4.07
2017-08-12T10:02:43.889Z,4.90
2017-08-12T10:05:12.360Z,4.13
2017-08-12T10:07:40.775Z,3.97
2017-08-12T10:10:08.483Z,4.07
2017-08-12T10:12:36.139Z,3.60
2017-08-12T10:15:03.802Z,3.93
2017-08-12T10:17:31.490Z,3.47
2017-08-12T10:19:59.143Z,3.30
2017-08-12T10:22:27.598Z,3.90
2017-08-12T10:24:55.244Z,3.20
2017-08-12T10:27:22.931Z,5.10
2017-08-12T10:29:50.574Z,3.23
2017-08-12T10:32:18.259Z,3.00
2017-08-12T10:34:46.683Z,3.80
2017-08-12T10:37:14.384Z,5.00
2017-08-12T10:39:42.036Z,4.10
2017-08-12T10:42:09.728Z,4.07
2017-08-12T10:44:37.371Z,3.80
2017-08-12T10:47:05.827Z,3.40
2017-08-12T10:49:33.475Z,3.80
2017-08-12T10:52:01.179Z,3.47
2017-08-12T10:54:29.611Z,3.30
2017-08-12T10:56:57.303Z,3.80
2017-08-12T10:59:25.723Z,4.00
2017-08-12T11:01:53.412Z,3.13
2017-08-12T11:04:21.068Z,3.97
2017-08-12T11:06:48.763Z,3.50
2017-08-12T11:09:17.178Z,3.53
2017-08-12T11:11:44.823Z,3.40
2017-08-12T11:14:12.520Z,3.73
2017-08-12T11:16:40.231Z,3.83
2017-08-12T11:19:07.944Z,4.47
2017-08-12T11:21:35.599Z,4.40
2017-08-12T11:24:03.287Z,4.07
2017-08-12T11:26:30.962Z,4.70
2017-08-12T11:28:59.410Z,4.90
2017-08-12T11:31:27.060Z,4.83
2017-08-12T11:33:54.752Z,4.73
2017-08-12T11:36:23.162Z,4.80
2017-08-12T11:38:50.852Z,5.00
2017-08-12T11:41:18.497Z,5.50
2017-08-12T11:43:46.182Z,4.60
2017-08-12T11:46:13.822Z,4.30
2017-08-12T11:48:41.515Z,4.53
2017-08-12T11:51:09.167Z,4.60
2017-08-12T11:53:36.851Z,4.97
2017-08-12T11:56:05.271Z,4.60
2017-08-12T11:58:32.967Z,4.70
2017-08-12T12:01:00.622Z,4.63
2017-08-12T12:03:28.317Z,4.77
2017-08-12T12:05:56.732Z,4.87
2017-08-12T12:08:24.424Z,5.00
2017-08-12T12:10:52.088Z,5.67
2017-08-12T12:13:19.787Z,4.13
2017-08-12T12:15:47.431Z,4.20
2017-08-12T12:18:15.898Z,5.40
2017-08-12T12:20:44.320Z,3.07
2017-08-12T12:23:11.972Z,3.70
2017-08-12T12:25:39.659Z,4.00
2017-08-12T12:28:07.312Z,3.73
2017-08-12T12:30:34.994Z,3.80
2017-08-12T12:33:02.644Z,3.90
2017-08-12T12:35:30.332Z,3.40
2017-08-12T12:37:58.745Z,3.80
2017-08-12T12:40:26.438Z,4.70
2017-08-12T12:42:54.078Z,4.70
2017-08-12T12:45:21.765Z,4.90
2017-08-12T12:47:49.408Z,5.53
2017-08-12T12:50:17.094Z,6.13
2017-08-12T12:52:44.739Z,5.40
2017-08-12T12:55:12.424Z,5.27
2017-08-12T12:57:40.091Z,5.70
2017-08-12T13:00:08.563Z,5.57
2017-08-12T13:02:36.207Z,5.80
2017-08-12T13:05:03.902Z,6.70
2017-08-12T13:07:31.553Z,6.70
2017-08-12T13:09:59.259Z,5.83
2017-08-12T13:12:26.927Z,5.77
2017-08-12T13:14:54.577Z,6.00
2017-08-12T13:17:22.258Z,5.77
2017-08-12T13:19:49.909Z,5.97
2017-08-12T13:22:17.599Z,5.30
2017-08-12T13:24:46.019Z,5.67
2017-08-12T13:27:13.717Z,6.40
2017-08-12T13:29:41.370Z,6.40
2017-08-12T13:32:09.065Z,6.50
2017-08-12T13:34:36.715Z,5.20
2017-08-12T13:37:05.171Z,5.40
2017-08-12T13:39:32.826Z,5.70
2017-08-12T13:42:00.519Z,5.57
2017-08-12T13:44:28.939Z,5.00
2017-08-12T13:46:56.632Z,4.73
2017-08-12T13:49:24.279Z,4.40
2017-08-12T13:51:51.972Z,4.40
2017-08-12T13:54:20.407Z,4.50
2017-08-12T13:56:48.099Z,4.23
2017-08-12T13:59:16.518Z,4.23
2017-08-12T14:01:44.259Z,4.70
2017-08-12T14:04:11.903Z,4.10
2017-08-12T14:06:40.359Z,4.27
2017-08-12T14:09:08.010Z,3.47
2017-08-12T14:11:35.707Z,4.47
2017-08-12T14:14:03.360Z,3.53
2017-08-12T14:16:31.778Z,4.70
2017-08-12T14:18:59.477Z,4.30
2017-08-12T14:21:27.131Z,4.40
2017-08-12T14:23:55.595Z,4.10
2017-08-12T14:26:23.268Z,4.10
2017-08-12T14:28:50.963Z,3.40
2017-08-12T14:31:18.665Z,3.83
2017-08-12T14:33:46.349Z,3.90
2017-08-12T14:36:14.003Z,4.77
2017-08-12T14:38:41.698Z,4.53
2017-08-12T14:41:09.352Z,4.20
2017-08-12T14:43:37.046Z,4.73
2017-08-12T14:46:04.703Z,4.20
2017-08-12T14:48:32.402Z,4.33
2017-08-12T14:51:00.082Z,4.27
2017-08-12T14:53:28.539Z,4.77
2017-08-12T14:55:56.227Z,4.70
2017-08-12T14:58:24.683Z,4.53
2017-08-12T15:00:52.327Z,5.10
2017-08-12T15:03:20.032Z,4.60
2017-08-12T15:05:47.683Z,5.47
2017-08-12T15:08:16.139Z,5.70
2017-08-12T15:10:43.784Z,5.53
2017-08-12T15:13:11.471Z,5.20
2017-08-12T15:15:39.114Z,5.97
2017-08-12T15:18:06.775Z,4.70
2017-08-12T15:20:34.468Z,4.77
2017-08-12T15:23:02.115Z,5.50
2017-08-12T15:25:30.602Z,5.63
2017-08-12T15:27:58.248Z,5.20
2017-08-12T15:30:26.703Z,5.47
2017-08-12T15:32:54.352Z,5.87
2017-08-12T15:35:22.082Z,5.47
2017-08-12T15:37:49.727Z,4.90
2017-08-12T15:40:17.407Z,5.00
2017-08-12T15:42:45.059Z,5.40
2017-08-12T15:45:12.755Z,5.37
2017-08-12T15:47:40.416Z,4.60
2017-08-12T15:50:08.110Z,5.40
2017-08-12T15:52:36.532Z,5.03
2017-08-12T15:55:04.219Z,5.30
2017-08-12T15:57:31.871Z,4.73
2017-08-12T15:59:59.564Z,5.63
2017-08-12T16:02:27.980Z,5.63
2017-08-12T16:04:55.677Z,5.73
2017-08-12T16:07:23.355Z,5.30
2017-08-12T16:09:51.823Z,5.20
2017-08-12T16:12:20.251Z,5.40
2017-08-12T16:14:47.947Z,4.77
2017-08-12T16:17:15.608Z,6.10
2017-08-12T16:19:43.347Z,5.27
2017-08-12T16:22:11.011Z,5.20
2017-08-12T16:24:38.661Z,5.87
2017-08-12T16:27:06.358Z,4.90
2017-08-12T16:29:34.011Z,6.03
2017-08-12T16:32:01.706Z,5.20
2017-08-12T16:34:29.351Z,6.37
2017-08-12T16:36:57.812Z,6.33
2017-08-12T16:39:25.464Z,5.70
2017-08-12T16:41:53.154Z,5.87
2017-08-12T16:44:21.574Z,5.63
2017-08-12T16:46:49.274Z,6.17
2017-08-12T16:49:17.696Z,5.77
2017-08-12T16:51:45.392Z,6.67
2017-08-12T16:54:13.047Z,5.63
2017-08-12T16:56:40.743Z,5.37
2017-08-12T16:59:09.169Z,5.53
2017-08-12T17:01:36.870Z,6.07
2017-08-12T17:04:05.283Z,5.23
2017-08-12T17:06:32.980Z,5.80
2017-08-12T17:09:00.636Z,6.30
2017-08-12T17:11:28.342Z,5.10
2017-08-12T17:13:56.754Z,6.10
2017-08-12T17:16:24.451Z,6.00
2017-08-12T17:18:52.103Z,5.90
2017-08-12T17:21:19.820Z,5.77
2017-08-12T17:23:47.543Z,6.00
2017-08-12T17:26:15.965Z,5.47
2017-08-12T17:28:43.661Z,6.30
2017-08-12T17:31:11.311Z,6.30
2017-08-12T17:33:39.002Z,7.07
2017-08-12T17:36:07.458Z,6.50
2017-08-12T17:38:35.150Z,6.70
2017-08-12T17:41:03.572Z,6.60
2017-08-12T17:43:31.259Z,6.97
2017-08-12T17:45:58.906Z,7.37
2017-08-12T17:48:26.595Z,7.53
2017-08-12T17:50:55.015Z,7.50
2017-08-12T17:53:23.787Z,7.20
2017-08-12T17:55:52.612Z,7.80
2017-08-12T17:58:21.714Z,7.30
2017-08-12T18:00:50.558Z,7.70
2017-08-12T18:03:19.932Z,8.00
2017-08-12T18:05:48.748Z,9.27
2017-08-12T18:08:18.179Z,8.03
2017-08-12T18:10:46.912Z,8.10
2017-08-12T18:13:15.661Z,8.27
2017-08-12T18:15:44.219Z,9.20
2017-08-12T18:18:12.022Z,8.00
2017-08-12T18:20:40.435Z,7.73
2017-08-12T18:23:08.131Z,9.03
2017-08-12T18:25:35.779Z,8.73
2017-08-12T18:28:03.472Z,8.60
2017-08-12T18:30:31.119Z,8.17
2017-08-12T18:32:58.815Z,8.23
2017-08-12T18:35:26.459Z,8.50
2017-08-12T18:37:54.887Z,8.47
2017-08-12T18:40:22.581Z,9.13
2017-08-12T18:42:50.231Z,7.27
2017-08-12T18:45:17.922Z,8.53
2017-08-12T18:47:46.343Z,8.17
2017-08-12T18:50:14.040Z,9.27
2017-08-12T18:52:41.691Z,8.30
2017-08-12T18:55:09.393Z,8.07
2017-08-12T18:57:37.035Z,7.20
2017-08-12T19:00:05.505Z,7.07
2017-08-12T19:02:33.932Z,7.97
2017-08-12T19:05:01.623Z,7.30
2017-08-12T19:07:29.270Z,8.23
2017-08-12T19:09:56.962Z,6.57
2017-08-12T19:12:25.375Z,7.03
2017-08-12T19:14:53.067Z,7.80
2017-08-12T19:17:20.706Z,7.80
2017-08-12T19:19:48.403Z,8.33
2017-08-12T19:22:16.059Z,8.10
2017-08-12T19:24:43.751Z,7.60
2017-08-12T19:27:11.402Z,8.20
2017-08-12T19:29:39.995Z,7.97
2017-08-12T19:32:07.640Z,6.80
2017-08-12T19:34:35.343Z,6.40
2017-08-12T19:37:02.992Z,7.70
2017-08-12T19:39:30.682Z,6.67
2017-08-12T19:41:58.326Z,7.33
2017-08-12T19:44:25.983Z,7.23
2017-08-12T19:46:53.667Z,7.57
2017-08-12T19:49:21.311Z,6.80
2017-08-12T19:51:48.999Z,6.73
2017-08-12T19:54:16.663Z,6.97
2017-08-12T19:56:45.130Z,6.70
2017-08-12T19:59:12.779Z,6.70
2017-08-12T20:01:40.471Z,6.70
2017-08-12T20:04:08.887Z,7.37
2017-08-12T20:06:36.583Z,6.60
2017-08-12T20:09:04.299Z,5.90
2017-08-12T20:11:31.992Z,7.40
2017-08-12T20:13:59.634Z,6.57
2017-08-12T20:16:27.327Z,5.70
2017-08-12T20:18:54.978Z,5.30
2017-08-12T20:21:22.681Z,5.63
2017-08-12T20:23:50.364Z,5.97
2017-08-12T20:26:18.055Z,5.90
2017-08-12T20:28:45.703Z,5.77
2017-08-12T20:31:13.392Z,5.60
2017-08-12T20:33:41.038Z,5.23
2017-08-12T20:36:08.726Z,5.97
2017-08-12T20:38:37.148Z,5.93
2017-08-12T20:41:04.835Z,6.47
2017-08-12T20:43:32.483Z,5.67
2017-08-12T20:46:00.182Z,5.80
2017-08-12T20:48:28.596Z,5.73
2017-08-12T20:50:56.244Z,5.90
2017-08-12T20:53:23.932Z,6.17
2017-08-12T20:55:51.578Z,6.30
2017-08-12T20:58:19.272Z,5.30
2017-08-12T21:00:46.931Z,5.53
2017-08-12T21:03:14.619Z,6.67
2017-08-12T21:05:43.031Z,5.47
2017-08-12T21:08:10.723Z,5.93
2017-08-12T21:10:38.371Z,5.90
2017-08-12T21:13:06.054Z,6.03
2017-08-12T21:15:33.699Z,5.77
2017-08-12T21:18:01.383Z,6.00
2017-08-12T21:20:29.036Z,6.60
2017-08-12T21:22:57.504Z,5.63
2017-08-12T21:25:25.155Z,5.70
2017-08-12T21:27:52.846Z,6.07
2017-08-12T21:30:21.263Z,6.07
2017-08-12T21:32:48.954Z,5.70
2017-08-12T21:35:16.602Z,5.57
2017-08-12T21:37:44.290Z,5.60
2017-08-12T21:40:12.705Z,6.10
2017-08-12T21:42:40.408Z,7.23
2017-08-12T21:45:08.053Z,6.67
2017-08-12T21:47:35.699Z,5.30
2017-08-12T21:50:03.390Z,5.93
2017-08-12T21:52:31.035Z,6.53
2017-08-12T21:54:58.727Z,5.53
2017-08-12T21:57:27.144Z,5.70
2017-08-12T21:59:54.834Z,5.07
2017-08-12T22:02:22.478Z,6.23
2017-08-12T22:04:50.162Z,5.50
2017-08-12T22:07:17.820Z,6.40
2017-08-12T22:09:46.270Z,6.23
2017-08-12T22:12:13.914Z,6.13
2017-08-12T22:14:41.605Z,5.90
2017-08-12T22:17:09.251Z,6.30
2017-08-12T22:19:36.938Z,6.53
2017-08-12T22:22:04.583Z,6.33
2017-08-12T22:24:32.266Z,5.43
2017-08-12T22:26:59.911Z,6.00
2017-08-12T22:29:27.605Z,6.00
2017-08-12T22:31:56.023Z,6.13
2017-08-12T22:34:23.710Z,5.80
2017-08-12T22:36:51.351Z,5.70
2017-08-12T22:39:19.040Z,6.40
2017-08-12T22:41:46.692Z,5.90
2017-08-12T22:44:14.342Z,6.23
2017-08-12T22:46:42.027Z,6.60
2017-08-12T22:49:10.443Z,6.10
2017-08-12T22:51:38.129Z,6.27
2017-08-12T22:54:05.775Z,6.13
2017-08-12T22:56:33.462Z,6.07
2017-08-12T22:59:01.108Z,6.63
2017-08-12T23:01:28.800Z,5.80
2017-08-12T23:03:57.219Z,6.10
2017-08-12T23:06:24.922Z,5.60
2017-08-12T23:08:52.575Z,5.67
2017-08-12T23:11:20.267Z,5.93
2017-08-12T23:13:47.910Z,6.00
2017-08-12T23:16:15.620Z,6.63
2017-08-12T23:18:43.279Z,6.40
2017-08-12T23:21:11.066Z,6.07
2017-08-12T23:23:38.716Z,6.17
2017-08-12T23:26:06.407Z,5.70
2017-08-12T23:28:34.063Z,6.10
2017-08-12T23:31:01.747Z,6.60
2017-08-12T23:33:30.162Z,6.63
2017-08-12T23:35:57.851Z,6.00
2017-08-12T23:38:25.497Z,5.67
2017-08-12T23:40:53.191Z,6.63
2017-08-12T23:43:21.611Z,6.43
2017-08-12T23:45:49.303Z,5.77
2017-08-12T23:48:16.998Z,7.00
2017-08-12T23:50:45.410Z,6.80
2017-08-12T23:53:13.107Z,5.47
2017-08-12T23:55:40.762Z,7.10
2017-08-12T23:58:08.443Z,6.17
